createdAt,value
2019-06-08T00:03:37.754Z,67.20
2019-06-08T00:10:25.644Z,67.00
2019-06-08T00:17:10.115Z,67.90
2019-06-08T00:23:54.966Z,67.80
2019-06-08T00:30:41.379Z,67.00
2019-06-08T00:37:26.422Z,67.40
2019-06-08T00:44:11.278Z,67.90
2019-06-08T00:50:56.135Z,68.30
2019-06-08T00:57:44.736Z,68.60
2019-06-08T01:04:31.749Z,69.40
2019-06-08T01:11:16.738Z,69.30
2019-06-08T01:18:04.078Z,69.60
2019-06-08T01:24:50.049Z,69.20
2019-06-08T01:31:36.500Z,69.20
2019-06-08T01:38:21.441Z,68.80
2019-06-08T01:45:08.042Z,67.70
2019-06-08T01:51:55.615Z,68.50
2019-06-08T01:58:40.724Z,68.60
2019-06-08T02:05:26.105Z,68.60
2019-06-08T02:12:11.341Z,68.60
2019-06-08T02:18:56.283Z,68.60
2019-06-08T02:25:42.355Z,67.90
2019-06-08T02:32:28.529Z,69.40
2019-06-08T02:39:13.848Z,68.90
2019-06-08T02:45:58.775Z,68.50
2019-06-08T02:52:46.646Z,68.10
2019-06-08T02:59:35.651Z,68.00
2019-06-08T03:06:21.837Z,68.40
2019-06-08T03:13:06.824Z,68.20
2019-06-08T03:19:51.853Z,68.10
2019-06-08T03:26:39.731Z,68.00
2019-06-08T03:33:24.381Z,68.10
2019-06-08T03:40:09.651Z,67.80
2019-06-08T03:46:54.512Z,67.80
2019-06-08T03:53:40.180Z,67.70
2019-06-08T04:00:26.481Z,66.70
2019-06-08T04:07:11.416Z,66.20
2019-06-08T04:13:56.266Z,66.00
2019-06-08T04:20:44.988Z,66.10
2019-06-08T04:27:27.684Z,65.80
2019-06-08T04:34:12.768Z,65.50
2019-06-08T04:40:57.700Z,65.20
2019-06-08T04:47:43.638Z,64.40
2019-06-08T04:54:29.551Z,64.20
2019-06-08T05:01:14.546Z,63.50
2019-06-08T05:07:59.406Z,63.10
2019-06-08T05:14:45.104Z,62.80
2019-06-08T05:21:31.151Z,62.10
2019-06-08T05:28:16.626Z,60.50
2019-06-08T05:35:02.040Z,59.60
2019-06-08T05:41:50.943Z,58.20
2019-06-08T05:48:35.131Z,57.50
2019-06-08T05:55:19.989Z,58.00
2019-06-08T06:02:05.995Z,58.00
2019-06-08T06:08:51.052Z,58.90
2019-06-08T06:15:36.093Z,58.00
2019-06-08T06:22:21.087Z,56.20
2019-06-08T06:29:05.947Z,40.80
2019-06-08T06:35:52.006Z,36.40
2019-06-08T06:42:37.163Z,36.60
2019-06-08T06:49:22.085Z,29.20
2019-06-08T06:56:07.903Z,28.70
2019-06-08T07:02:53.991Z,31.20
2019-06-08T07:09:39.991Z,29.60
2019-06-08T07:16:24.849Z,28.20
2019-06-08T07:23:09.735Z,25.50
2019-06-08T07:29:54.879Z,25.80
2019-06-08T07:36:39.884Z,25.60
2019-06-08T07:43:24.819Z,24.30
2019-06-08T07:50:10.118Z,23.70
2019-06-08T07:56:55.238Z,23.70
2019-06-08T08:03:40.436Z,24.50
2019-06-08T08:10:26.295Z,23.10
2019-06-08T08:17:11.269Z,22.10
2019-06-08T08:23:59.419Z,21.20
2019-06-08T08:30:43.290Z,20.30
2019-06-08T08:37:29.017Z,19.20
2019-06-08T08:44:13.947Z,19.30
2019-06-08T08:51:01.426Z,19.80
2019-06-08T08:57:47.855Z,19.50
2019-06-08T09:04:32.000Z,19.40
2019-06-08T09:11:17.621Z,19.00
2019-06-08T09:18:03.892Z,18.80
2019-06-08T09:24:48.957Z,19.90
2019-06-08T09:31:33.977Z,19.50
2019-06-08T09:38:18.839Z,19.80
2019-06-08T09:45:08.948Z,20.40
2019-06-08T09:51:55.358Z,19.50
2019-06-08T09:58:40.845Z,20.60
2019-06-08T10:05:27.589Z,21.20
2019-06-08T10:12:13.644Z,19.90
2019-06-08T10:19:02.290Z,19.60
2019-06-08T10:25:48.200Z,19.40
2019-06-08T10:32:33.467Z,19.30
2019-06-08T10:39:18.475Z,18.50
2019-06-08T10:46:10.049Z,20.40
2019-06-08T10:52:50.279Z,19.70
2019-06-08T10:59:37.294Z,22.00
2019-06-08T11:06:21.775Z,22.00
2019-06-08T11:13:14.376Z,22.40
2019-06-08T11:19:53.562Z,22.10
2019-06-08T11:26:40.349Z,22.80
2019-06-08T11:33:25.000Z,22.80
2019-06-08T11:40:12.609Z,22.60
2019-06-08T11:46:57.492Z,22.20
2019-06-08T11:53:43.624Z,22.20
2019-06-08T12:00:52.028Z,22.20
2019-06-08T12:07:38.171Z,22.40
2019-06-08T12:14:23.211Z,23.00
2019-06-08T12:21:09.873Z,23.70
2019-06-08T12:27:54.731Z,23.00
2019-06-08T12:34:39.595Z,22.10
2019-06-08T12:41:24.522Z,21.60
2019-06-08T12:48:15.795Z,21.80
2019-06-08T12:55:03.455Z,22.70
2019-06-08T13:01:42.774Z,21.40
2019-06-08T13:08:28.666Z,22.00
2019-06-08T13:15:14.507Z,22.30
2019-06-08T13:21:59.495Z,22.20
2019-06-08T13:28:44.360Z,22.20
2019-06-08T13:35:30.675Z,22.30
2019-06-08T13:42:17.925Z,22.30
2019-06-08T13:49:02.387Z,22.60
2019-06-08T13:55:53.291Z,25.50
2019-06-08T14:02:33.795Z,26.70
2019-06-08T14:09:21.816Z,26.30
2019-06-08T14:16:11.148Z,26.20
2019-06-08T14:22:53.755Z,26.60
2019-06-08T14:29:38.692Z,25.70
2019-06-08T14:36:24.798Z,26.40
2019-06-08T14:43:10.733Z,27.30
2019-06-08T14:49:55.759Z,26.60
2019-06-08T14:56:40.789Z,26.70
2019-06-08T15:03:25.741Z,27.10
2019-06-08T15:10:10.895Z,26.90
2019-06-08T15:16:58.869Z,27.20
2019-06-08T15:23:43.579Z,27.10
2019-06-08T15:30:31.041Z,27.00
2019-06-08T15:37:15.266Z,27.10
2019-06-08T15:44:00.392Z,27.00
2019-06-08T15:50:47.150Z,27.40
2019-06-08T15:57:36.597Z,27.50
2019-06-08T16:04:18.605Z,27.60
2019-06-08T16:11:03.791Z,27.30
2019-06-08T16:17:49.284Z,27.60
2019-06-08T16:24:36.229Z,27.60
2019-06-08T16:31:21.374Z,27.90
2019-06-08T16:38:06.301Z,27.60
2019-06-08T16:44:51.248Z,27.40
2019-06-08T16:51:36.352Z,28.10
2019-06-08T16:58:21.202Z,27.30
2019-06-08T17:05:07.763Z,27.50
2019-06-08T17:11:53.081Z,27.90
2019-06-08T17:18:38.537Z,28.90
2019-06-08T17:25:23.567Z,28.00
2019-06-08T17:32:08.602Z,27.90
2019-06-08T17:38:53.472Z,28.10
2019-06-08T17:45:38.540Z,28.10
2019-06-08T17:52:27.711Z,28.40
2019-06-08T17:59:10.894Z,28.60
2019-06-08T18:05:57.732Z,29.10
2019-06-08T18:12:46.056Z,29.90
2019-06-08T18:19:31.355Z,29.70
2019-06-08T18:26:17.239Z,30.00
2019-06-08T18:33:03.077Z,31.70
2019-06-08T18:39:49.436Z,33.50
2019-06-08T18:46:34.959Z,35.30
2019-06-08T18:53:24.090Z,35.60
2019-06-08T19:00:11.773Z,37.60
2019-06-08T19:07:00.627Z,37.80
2019-06-08T19:13:43.327Z,40.10
2019-06-08T19:20:28.486Z,41.10
2019-06-08T19:27:13.984Z,43.20
2019-06-08T19:33:59.095Z,44.10
2019-06-08T19:40:44.453Z,44.80
2019-06-08T19:47:29.371Z,46.80
2019-06-08T19:54:14.972Z,47.20
2019-06-08T20:01:00.074Z,47.40
2019-06-08T20:07:45.071Z,49.00
2019-06-08T20:14:29.937Z,49.20
2019-06-08T20:21:14.797Z,51.30
2019-06-08T20:28:00.030Z,54.60
2019-06-08T20:34:49.030Z,57.80
2019-06-08T20:41:33.972Z,59.90
2019-06-08T20:48:18.888Z,61.30
2019-06-08T20:55:03.890Z,61.60
2019-06-08T21:01:52.173Z,62.50
2019-06-08T21:08:37.226Z,64.00
2019-06-08T21:15:22.409Z,64.10
2019-06-08T21:22:08.321Z,62.80
2019-06-08T21:28:55.568Z,63.20
2019-06-08T21:35:39.997Z,64.50
2019-06-08T21:42:27.754Z,64.30
2019-06-08T21:49:13.480Z,64.10
2019-06-08T21:55:59.254Z,64.30
2019-06-08T22:02:44.250Z,67.90
2019-06-08T22:09:31.071Z,69.00
2019-06-08T22:16:16.446Z,68.90
2019-06-08T22:23:01.307Z,69.40
2019-06-08T22:29:48.434Z,68.50
2019-06-08T22:36:34.011Z,68.60
2019-06-08T22:43:21.895Z,69.50
2019-06-08T22:50:08.262Z,69.60
2019-06-08T22:56:55.545Z,69.30
2019-06-08T23:03:40.919Z,71.30
2019-06-08T23:10:26.018Z,72.10
2019-06-08T23:17:11.488Z,71.80
2019-06-08T23:23:59.274Z,71.30
2019-06-08T23:30:43.060Z,73.10
2019-06-08T23:37:29.265Z,73.70
2019-06-08T23:44:14.199Z,73.20
2019-06-08T23:51:00.475Z,73.20
2019-06-08T23:57:45.623Z,73.50
